sensor_id;sensor_type;location;lat;lon;timestamp;P1;durP1;ratioP1;P2;durP2;ratioP2
25946;SDS011;13745;51.470;9.894;2022-12-26T00:01:45;6.32;;;3.25;;
25946;SDS011;13745;51.470;9.894;2022-12-26T00:04:32;5.00;;;3.60;;
25946;SDS011;13745;51.470;9.894;2022-12-26T00:07:17;4.35;;;2.95;;
25946;SDS011;13745;51.470;9.894;2022-12-26T00:10:02;8.38;;;3.78;;
25946;SDS011;13745;51.470;9.894;2022-12-26T00:12:49;6.38;;;3.63;;
25946;SDS011;13745;51.470;9.894;2022-12-26T00:15:38;5.13;;;3.17;;
25946;SDS011;13745;51.470;9.894;2022-12-26T00:18:23;6.75;;;2.95;;
25946;SDS011;13745;51.470;9.894;2022-12-26T00:21:09;3.35;;;2.80;;
25946;SDS011;13745;51.470;9.894;2022-12-26T00:23:56;3.85;;;2.95;;
25946;SDS011;13745;51.470;9.894;2022-12-26T00:26:42;5.07;;;3.05;;
25946;SDS011;13745;51.470;9.894;2022-12-26T00:29:29;3.25;;;2.65;;
25946;SDS011;13745;51.470;9.894;2022-12-26T00:32:14;4.28;;;2.90;;
25946;SDS011;13745;51.470;9.894;2022-12-26T00:34:59;6.30;;;2.92;;
25946;SDS011;13745;51.470;9.894;2022-12-26T00:37:44;5.25;;;3.00;;
25946;SDS011;13745;51.470;9.894;2022-12-26T00:40:29;4.15;;;2.45;;
25946;SDS011;13745;51.470;9.894;2022-12-26T00:43:14;3.22;;;2.40;;
25946;SDS011;13745;51.470;9.894;2022-12-26T00:46:00;4.70;;;2.60;;
25946;SDS011;13745;51.470;9.894;2022-12-26T00:48:46;3.28;;;2.70;;
25946;SDS011;13745;51.470;9.894;2022-12-26T00:51:31;4.15;;;2.55;;
25946;SDS011;13745;51.470;9.894;2022-12-26T00:54:16;3.53;;;2.58;;
25946;SDS011;13745;51.470;9.894;2022-12-26T00:57:00;5.00;;;2.88;;
25946;SDS011;13745;51.470;9.894;2022-12-26T00:59:45;3.08;;;2.47;;
25946;SDS011;13745;51.470;9.894;2022-12-26T01:02:32;3.95;;;2.35;;
25946;SDS011;13745;51.470;9.894;2022-12-26T01:05:26;5.10;;;2.08;;
25946;SDS011;13745;51.470;9.894;2022-12-26T01:08:11;6.57;;;2.72;;
25946;SDS011;13745;51.470;9.894;2022-12-26T01:10:56;2.80;;;2.20;;
25946;SDS011;13745;51.470;9.894;2022-12-26T01:13:45;2.78;;;2.38;;
25946;SDS011;13745;51.470;9.894;2022-12-26T01:16:30;4.20;;;2.55;;
25946;SDS011;13745;51.470;9.894;2022-12-26T01:19:16;3.85;;;2.38;;
25946;SDS011;13745;51.470;9.894;2022-12-26T01:22:02;3.05;;;2.30;;
25946;SDS011;13745;51.470;9.894;2022-12-26T01:24:47;3.63;;;2.10;;
25946;SDS011;13745;51.470;9.894;2022-12-26T01:27:32;5.90;;;2.40;;
25946;SDS011;13745;51.470;9.894;2022-12-26T01:30:17;5.43;;;3.08;;
25946;SDS011;13745;51.470;9.894;2022-12-26T01:33:02;3.22;;;2.22;;
25946;SDS011;13745;51.470;9.894;2022-12-26T01:35:52;2.58;;;2.10;;
25946;SDS011;13745;51.470;9.894;2022-12-26T01:38:37;5.68;;;2.40;;
25946;SDS011;13745;51.470;9.894;2022-12-26T01:41:23;3.47;;;2.45;;
25946;SDS011;13745;51.470;9.894;2022-12-26T01:47:30;3.40;;;2.30;;
25946;SDS011;13745;51.470;9.894;2022-12-26T01:50:25;4.45;;;2.53;;
25946;SDS011;13745;51.470;9.894;2022-12-26T01:53:17;3.28;;;2.15;;
25946;SDS011;13745;51.470;9.894;2022-12-26T01:56:07;4.00;;;2.60;;
25946;SDS011;13745;51.470;9.894;2022-12-26T01:58:55;3.45;;;3.00;;
25946;SDS011;13745;51.470;9.894;2022-12-26T02:01:46;5.10;;;2.75;;
25946;SDS011;13745;51.470;9.894;2022-12-26T02:04:35;2.58;;;2.05;;
25946;SDS011;13745;51.470;9.894;2022-12-26T02:07:41;3.05;;;2.38;;
25946;SDS011;13745;51.470;9.894;2022-12-26T02:10:32;3.83;;;2.28;;
25946;SDS011;13745;51.470;9.894;2022-12-26T02:13:20;4.65;;;2.45;;
25946;SDS011;13745;51.470;9.894;2022-12-26T02:16:07;2.60;;;2.15;;
25946;SDS011;13745;51.470;9.894;2022-12-26T02:18:56;3.70;;;2.40;;
25946;SDS011;13745;51.470;9.894;2022-12-26T02:21:50;4.80;;;2.38;;
25946;SDS011;13745;51.470;9.894;2022-12-26T02:28:40;7.03;;;2.22;;
25946;SDS011;13745;51.470;9.894;2022-12-26T02:31:35;7.63;;;2.80;;
25946;SDS011;13745;51.470;9.894;2022-12-26T02:34:30;5.40;;;2.92;;
25946;SDS011;13745;51.470;9.894;2022-12-26T02:37:30;4.65;;;2.58;;
25946;SDS011;13745;51.470;9.894;2022-12-26T02:40:28;3.90;;;2.35;;
25946;SDS011;13745;51.470;9.894;2022-12-26T02:43:28;4.22;;;2.75;;
25946;SDS011;13745;51.470;9.894;2022-12-26T02:46:23;3.88;;;3.08;;
25946;SDS011;13745;51.470;9.894;2022-12-26T02:49:42;4.70;;;3.20;;
25946;SDS011;13745;51.470;9.894;2022-12-26T02:56:06;3.40;;;2.67;;
25946;SDS011;13745;51.470;9.894;2022-12-26T02:59:17;5.50;;;3.10;;
25946;SDS011;13745;51.470;9.894;2022-12-26T03:02:29;5.57;;;2.85;;
25946;SDS011;13745;51.470;9.894;2022-12-26T03:05:38;5.47;;;3.40;;
25946;SDS011;13745;51.470;9.894;2022-12-26T03:08:45;5.90;;;2.92;;
25946;SDS011;13745;51.470;9.894;2022-12-26T03:11:51;6.85;;;2.92;;
25946;SDS011;13745;51.470;9.894;2022-12-26T03:14:58;6.80;;;3.08;;
25946;SDS011;13745;51.470;9.894;2022-12-26T03:17:47;8.15;;;2.72;;
25946;SDS011;13745;51.470;9.894;2022-12-26T03:20:35;3.92;;;2.65;;
25946;SDS011;13745;51.470;9.894;2022-12-26T03:23:23;6.07;;;3.92;;
25946;SDS011;13745;51.470;9.894;2022-12-26T03:26:11;2.97;;;2.63;;
25946;SDS011;13745;51.470;9.894;2022-12-26T03:29:19;3.63;;;2.30;;
25946;SDS011;13745;51.470;9.894;2022-12-26T03:32:23;3.28;;;2.50;;
25946;SDS011;13745;51.470;9.894;2022-12-26T03:35:10;4.50;;;2.53;;
25946;SDS011;13745;51.470;9.894;2022-12-26T03:37:57;8.82;;;2.63;;
25946;SDS011;13745;51.470;9.894;2022-12-26T03:40:50;5.18;;;2.65;;
25946;SDS011;13745;51.470;9.894;2022-12-26T03:44:08;4.72;;;2.75;;
25946;SDS011;13745;51.470;9.894;2022-12-26T03:47:23;8.07;;;2.75;;
25946;SDS011;13745;51.470;9.894;2022-12-26T03:50:31;4.60;;;2.90;;
25946;SDS011;13745;51.470;9.894;2022-12-26T03:53:38;6.85;;;3.00;;
25946;SDS011;13745;51.470;9.894;2022-12-26T03:56:49;4.63;;;3.15;;
25946;SDS011;13745;51.470;9.894;2022-12-26T03:59:57;4.68;;;2.55;;
25946;SDS011;13745;51.470;9.894;2022-12-26T04:03:04;3.38;;;2.70;;
25946;SDS011;13745;51.470;9.894;2022-12-26T04:06:13;4.60;;;2.90;;
25946;SDS011;13745;51.470;9.894;2022-12-26T04:09:20;5.35;;;2.70;;
25946;SDS011;13745;51.470;9.894;2022-12-26T04:12:28;5.68;;;2.40;;
25946;SDS011;13745;51.470;9.894;2022-12-26T04:15:37;3.92;;;2.13;;
25946;SDS011;13745;51.470;9.894;2022-12-26T04:18:49;7.18;;;2.50;;
25946;SDS011;13745;51.470;9.894;2022-12-26T04:21:58;6.53;;;2.60;;
25946;SDS011;13745;51.470;9.894;2022-12-26T04:25:08;4.75;;;2.40;;
25946;SDS011;13745;51.470;9.894;2022-12-26T04:28:16;3.40;;;2.17;;
25946;SDS011;13745;51.470;9.894;2022-12-26T04:31:20;2.83;;;2.20;;
25946;SDS011;13745;51.470;9.894;2022-12-26T04:34:33;5.18;;;2.10;;
25946;SDS011;13745;51.470;9.894;2022-12-26T04:37:41;3.65;;;2.47;;
25946;SDS011;13745;51.470;9.894;2022-12-26T04:40:48;4.15;;;2.30;;
25946;SDS011;13745;51.470;9.894;2022-12-26T04:43:57;3.45;;;2.08;;
25946;SDS011;13745;51.470;9.894;2022-12-26T04:46:52;4.90;;;2.63;;
25946;SDS011;13745;51.470;9.894;2022-12-26T04:49:43;4.75;;;2.05;;
25946;SDS011;13745;51.470;9.894;2022-12-26T04:52:47;5.43;;;2.42;;
25946;SDS011;13745;51.470;9.894;2022-12-26T04:55:44;3.88;;;2.40;;
25946;SDS011;13745;51.470;9.894;2022-12-26T04:58:29;4.40;;;2.03;;
25946;SDS011;13745;51.470;9.894;2022-12-26T05:01:16;4.40;;;2.22;;
25946;SDS011;13745;51.470;9.894;2022-12-26T05:04:16;4.25;;;2.15;;
25946;SDS011;13745;51.470;9.894;2022-12-26T05:07:20;4.40;;;2.00;;
25946;SDS011;13745;51.470;9.894;2022-12-26T05:10:26;2.53;;;1.83;;
25946;SDS011;13745;51.470;9.894;2022-12-26T05:13:12;4.40;;;2.53;;
25946;SDS011;13745;51.470;9.894;2022-12-26T05:15:59;2.75;;;1.77;;
25946;SDS011;13745;51.470;9.894;2022-12-26T05:19:03;2.47;;;1.70;;
25946;SDS011;13745;51.470;9.894;2022-12-26T05:22:08;4.80;;;1.83;;
25946;SDS011;13745;51.470;9.894;2022-12-26T05:25:13;2.67;;;1.45;;
25946;SDS011;13745;51.470;9.894;2022-12-26T05:28:20;2.75;;;1.88;;
25946;SDS011;13745;51.470;9.894;2022-12-26T05:34:10;3.40;;;2.10;;
25946;SDS011;13745;51.470;9.894;2022-12-26T05:36:57;5.43;;;2.00;;
25946;SDS011;13745;51.470;9.894;2022-12-26T05:39:43;2.42;;;1.92;;
25946;SDS011;13745;51.470;9.894;2022-12-26T05:42:28;5.18;;;2.63;;
25946;SDS011;13745;51.470;9.894;2022-12-26T05:45:13;4.93;;;2.17;;
25946;SDS011;13745;51.470;9.894;2022-12-26T05:47:59;4.57;;;2.30;;
25946;SDS011;13745;51.470;9.894;2022-12-26T05:50:46;2.45;;;1.92;;
25946;SDS011;13745;51.470;9.894;2022-12-26T05:53:31;4.35;;;2.10;;
25946;SDS011;13745;51.470;9.894;2022-12-26T05:56:17;5.93;;;2.30;;
25946;SDS011;13745;51.470;9.894;2022-12-26T05:59:03;6.43;;;2.75;;
25946;SDS011;13745;51.470;9.894;2022-12-26T06:01:48;3.55;;;2.28;;
25946;SDS011;13745;51.470;9.894;2022-12-26T06:04:33;3.92;;;2.47;;
25946;SDS011;13745;51.470;9.894;2022-12-26T06:07:20;4.72;;;2.78;;
25946;SDS011;13745;51.470;9.894;2022-12-26T06:10:06;5.90;;;2.58;;
25946;SDS011;13745;51.470;9.894;2022-12-26T06:12:52;4.88;;;2.17;;
25946;SDS011;13745;51.470;9.894;2022-12-26T06:15:37;3.83;;;2.50;;
25946;SDS011;13745;51.470;9.894;2022-12-26T06:18:22;4.35;;;2.28;;
25946;SDS011;13745;51.470;9.894;2022-12-26T06:21:08;5.38;;;2.50;;
25946;SDS011;13745;51.470;9.894;2022-12-26T06:23:56;7.20;;;2.35;;
25946;SDS011;13745;51.470;9.894;2022-12-26T06:26:41;4.38;;;2.70;;
25946;SDS011;13745;51.470;9.894;2022-12-26T06:29:26;4.82;;;2.38;;
25946;SDS011;13745;51.470;9.894;2022-12-26T06:32:11;4.80;;;2.42;;
25946;SDS011;13745;51.470;9.894;2022-12-26T06:34:56;4.78;;;2.28;;
25946;SDS011;13745;51.470;9.894;2022-12-26T06:37:41;3.53;;;2.40;;
25946;SDS011;13745;51.470;9.894;2022-12-26T06:40:28;3.65;;;2.33;;
25946;SDS011;13745;51.470;9.894;2022-12-26T06:43:13;5.85;;;2.28;;
25946;SDS011;13745;51.470;9.894;2022-12-26T06:45:58;3.28;;;2.25;;
25946;SDS011;13745;51.470;9.894;2022-12-26T06:48:44;3.33;;;1.92;;
25946;SDS011;13745;51.470;9.894;2022-12-26T06:51:29;2.75;;;2.17;;
25946;SDS011;13745;51.470;9.894;2022-12-26T06:54:15;3.92;;;1.98;;
25946;SDS011;13745;51.470;9.894;2022-12-26T06:57:01;1.95;;;1.77;;
25946;SDS011;13745;51.470;9.894;2022-12-26T06:59:47;2.75;;;1.77;;
25946;SDS011;13745;51.470;9.894;2022-12-26T07:02:32;3.83;;;2.22;;
25946;SDS011;13745;51.470;9.894;2022-12-26T07:05:17;3.70;;;2.20;;
25946;SDS011;13745;51.470;9.894;2022-12-26T07:08:02;3.53;;;2.10;;
25946;SDS011;13745;51.470;9.894;2022-12-26T07:10:48;2.83;;;2.05;;
25946;SDS011;13745;51.470;9.894;2022-12-26T07:13:34;2.67;;;2.28;;
25946;SDS011;13745;51.470;9.894;2022-12-26T07:16:19;5.47;;;2.47;;
25946;SDS011;13745;51.470;9.894;2022-12-26T07:19:05;6.15;;;2.83;;
25946;SDS011;13745;51.470;9.894;2022-12-26T07:21:51;9.45;;;2.53;;
25946;SDS011;13745;51.470;9.894;2022-12-26T07:24:36;4.28;;;2.40;;
25946;SDS011;13745;51.470;9.894;2022-12-26T07:27:21;5.70;;;3.35;;
25946;SDS011;13745;51.470;9.894;2022-12-26T07:30:08;3.60;;;2.72;;
25946;SDS011;13745;51.470;9.894;2022-12-26T07:32:54;4.03;;;2.72;;
25946;SDS011;13745;51.470;9.894;2022-12-26T07:35:39;7.15;;;3.05;;
25946;SDS011;13745;51.470;9.894;2022-12-26T07:38:24;10.18;;;2.95;;
25946;SDS011;13745;51.470;9.894;2022-12-26T07:41:09;4.15;;;2.40;;
25946;SDS011;13745;51.470;9.894;2022-12-26T07:44:13;4.90;;;3.05;;
25946;SDS011;13745;51.470;9.894;2022-12-26T07:46:59;4.22;;;2.75;;
25946;SDS011;13745;51.470;9.894;2022-12-26T07:49:45;5.00;;;2.60;;
25946;SDS011;13745;51.470;9.894;2022-12-26T07:52:30;3.42;;;2.17;;
25946;SDS011;13745;51.470;9.894;2022-12-26T07:55:16;10.95;;;2.65;;
25946;SDS011;13745;51.470;9.894;2022-12-26T07:58:01;4.60;;;2.10;;
25946;SDS011;13745;51.470;9.894;2022-12-26T08:00:46;3.50;;;2.20;;
25946;SDS011;13745;51.470;9.894;2022-12-26T08:03:33;3.35;;;1.95;;
25946;SDS011;13745;51.470;9.894;2022-12-26T08:06:18;5.13;;;2.33;;
25946;SDS011;13745;51.470;9.894;2022-12-26T08:09:04;3.25;;;1.90;;
25946;SDS011;13745;51.470;9.894;2022-12-26T08:11:50;2.35;;;1.75;;
25946;SDS011;13745;51.470;9.894;2022-12-26T08:14:35;4.47;;;1.77;;
25946;SDS011;13745;51.470;9.894;2022-12-26T08:17:20;3.60;;;1.67;;
25946;SDS011;13745;51.470;9.894;2022-12-26T08:20:07;3.17;;;1.80;;
25946;SDS011;13745;51.470;9.894;2022-12-26T08:22:52;5.72;;;1.90;;
25946;SDS011;13745;51.470;9.894;2022-12-26T08:25:39;2.20;;;1.25;;
25946;SDS011;13745;51.470;9.894;2022-12-26T08:28:23;3.38;;;1.40;;
25946;SDS011;13745;51.470;9.894;2022-12-26T08:31:09;2.60;;;1.30;;
25946;SDS011;13745;51.470;9.894;2022-12-26T08:33:55;2.28;;;1.60;;
25946;SDS011;13745;51.470;9.894;2022-12-26T08:36:42;4.97;;;1.90;;
25946;SDS011;13745;51.470;9.894;2022-12-26T08:39:27;2.72;;;2.10;;
25946;SDS011;13745;51.470;9.894;2022-12-26T08:42:12;7.82;;;3.95;;
25946;SDS011;13745;51.470;9.894;2022-12-26T08:44:57;11.40;;;4.65;;
25946;SDS011;13745;51.470;9.894;2022-12-26T08:47:42;8.23;;;4.80;;
25946;SDS011;13745;51.470;9.894;2022-12-26T08:50:27;7.10;;;3.58;;
25946;SDS011;13745;51.470;9.894;2022-12-26T08:53:14;5.15;;;2.30;;
25946;SDS011;13745;51.470;9.894;2022-12-26T08:55:59;6.57;;;5.25;;
25946;SDS011;13745;51.470;9.894;2022-12-26T08:58:44;4.03;;;2.35;;
25946;SDS011;13745;51.470;9.894;2022-12-26T09:01:30;2.83;;;1.90;;
25946;SDS011;13745;51.470;9.894;2022-12-26T09:04:15;2.08;;;1.67;;
25946;SDS011;13745;51.470;9.894;2022-12-26T09:07:01;2.15;;;1.20;;
25946;SDS011;13745;51.470;9.894;2022-12-26T09:09:48;3.65;;;1.02;;
25946;SDS011;13745;51.470;9.894;2022-12-26T09:12:33;1.45;;;0.90;;
25946;SDS011;13745;51.470;9.894;2022-12-26T09:15:18;1.83;;;0.90;;
25946;SDS011;13745;51.470;9.894;2022-12-26T09:18:03;1.38;;;0.77;;
25946;SDS011;13745;51.470;9.894;2022-12-26T09:20:50;1.17;;;0.98;;
25946;SDS011;13745;51.470;9.894;2022-12-26T09:23:35;1.60;;;0.63;;
25946;SDS011;13745;51.470;9.894;2022-12-26T09:26:22;1.27;;;0.70;;
25946;SDS011;13745;51.470;9.894;2022-12-26T09:29:08;0.70;;;0.55;;
25946;SDS011;13745;51.470;9.894;2022-12-26T09:31:54;2.67;;;0.80;;
25946;SDS011;13745;51.470;9.894;2022-12-26T09:34:39;1.45;;;0.70;;
25946;SDS011;13745;51.470;9.894;2022-12-26T09:37:26;1.45;;;0.80;;
25946;SDS011;13745;51.470;9.894;2022-12-26T09:40:18;0.95;;;0.60;;
25946;SDS011;13745;51.470;9.894;2022-12-26T09:43:13;1.65;;;0.77;;
25946;SDS011;13745;51.470;9.894;2022-12-26T09:46:08;1.88;;;0.80;;
25946;SDS011;13745;51.470;9.894;2022-12-26T09:49:00;1.80;;;0.70;;
25946;SDS011;13745;51.470;9.894;2022-12-26T09:51:49;1.83;;;0.50;;
25946;SDS011;13745;51.470;9.894;2022-12-26T09:54:39;0.73;;;0.55;;
25946;SDS011;13745;51.470;9.894;2022-12-26T09:57:29;1.02;;;0.63;;
25946;SDS011;13745;51.470;9.894;2022-12-26T10:00:24;0.77;;;0.50;;
25946;SDS011;13745;51.470;9.894;2022-12-26T10:03:13;2.03;;;0.70;;
25946;SDS011;13745;51.470;9.894;2022-12-26T10:06:02;1.25;;;0.60;;
25946;SDS011;13745;51.470;9.894;2022-12-26T10:12:09;1.00;;;0.55;;
25946;SDS011;13745;51.470;9.894;2022-12-26T10:15:10;0.77;;;0.40;;
25946;SDS011;13745;51.470;9.894;2022-12-26T10:18:23;0.90;;;0.70;;
25946;SDS011;13745;51.470;9.894;2022-12-26T10:21:21;0.57;;;0.40;;
25946;SDS011;13745;51.470;9.894;2022-12-26T10:24:17;2.10;;;0.60;;
25946;SDS011;13745;51.470;9.894;2022-12-26T10:27:06;0.95;;;0.50;;
25946;SDS011;13745;51.470;9.894;2022-12-26T10:29:58;3.35;;;0.70;;
25946;SDS011;13745;51.470;9.894;2022-12-26T10:32:48;1.35;;;0.80;;
25946;SDS011;13745;51.470;9.894;2022-12-26T10:35:38;1.13;;;0.50;;
25946;SDS011;13745;51.470;9.894;2022-12-26T10:38:34;2.20;;;0.90;;
25946;SDS011;13745;51.470;9.894;2022-12-26T10:41:24;1.88;;;1.05;;
25946;SDS011;13745;51.470;9.894;2022-12-26T10:44:11;1.30;;;0.75;;
25946;SDS011;13745;51.470;9.894;2022-12-26T10:47:12;1.77;;;0.57;;
25946;SDS011;13745;51.470;9.894;2022-12-26T10:50:04;5.15;;;1.52;;
25946;SDS011;13745;51.470;9.894;2022-12-26T10:52:51;0.65;;;0.43;;
25946;SDS011;13745;51.470;9.894;2022-12-26T10:55:37;0.73;;;0.40;;
25946;SDS011;13745;51.470;9.894;2022-12-26T10:58:22;1.35;;;0.38;;
25946;SDS011;13745;51.470;9.894;2022-12-26T11:01:31;0.68;;;0.43;;
25946;SDS011;13745;51.470;9.894;2022-12-26T11:04:19;0.30;;;0.30;;
25946;SDS011;13745;51.470;9.894;2022-12-26T11:07:07;0.63;;;0.35;;
25946;SDS011;13745;51.470;9.894;2022-12-26T11:09:56;0.43;;;0.30;;
25946;SDS011;13745;51.470;9.894;2022-12-26T11:12:43;0.70;;;0.38;;
25946;SDS011;13745;51.470;9.894;2022-12-26T11:15:33;1.23;;;0.70;;
25946;SDS011;13745;51.470;9.894;2022-12-26T11:18:21;1.95;;;0.50;;
25946;SDS011;13745;51.470;9.894;2022-12-26T11:21:12;1.55;;;0.68;;
25946;SDS011;13745;51.470;9.894;2022-12-26T11:24:14;0.63;;;0.30;;
25946;SDS011;13745;51.470;9.894;2022-12-26T11:27:15;0.40;;;0.40;;
25946;SDS011;13745;51.470;9.894;2022-12-26T11:30:21;1.52;;;0.40;;
25946;SDS011;13745;51.470;9.894;2022-12-26T11:33:11;0.60;;;0.60;;
25946;SDS011;13745;51.470;9.894;2022-12-26T11:36:04;1.27;;;1.17;;
25946;SDS011;13745;51.470;9.894;2022-12-26T11:38:53;4.45;;;4.05;;
25946;SDS011;13745;51.470;9.894;2022-12-26T11:41:41;0.65;;;0.38;;
25946;SDS011;13745;51.470;9.894;2022-12-26T11:44:32;3.28;;;2.30;;
25946;SDS011;13745;51.470;9.894;2022-12-26T11:47:19;3.78;;;3.05;;
25946;SDS011;13745;51.470;9.894;2022-12-26T11:50:07;0.88;;;0.70;;
25946;SDS011;13745;51.470;9.894;2022-12-26T11:53:03;0.90;;;0.20;;
25946;SDS011;13745;51.470;9.894;2022-12-26T11:55:56;0.45;;;0.13;;
25946;SDS011;13745;51.470;9.894;2022-12-26T11:58:43;0.30;;;0.30;;
25946;SDS011;13745;51.470;9.894;2022-12-26T12:01:29;0.70;;;0.30;;
25946;SDS011;13745;51.470;9.894;2022-12-26T12:04:14;0.50;;;0.20;;
25946;SDS011;13745;51.470;9.894;2022-12-26T12:07:01;0.80;;;0.30;;
25946;SDS011;13745;51.470;9.894;2022-12-26T12:09:55;0.43;;;0.20;;
25946;SDS011;13745;51.470;9.894;2022-12-26T12:12:48;1.48;;;0.20;;
25946;SDS011;13745;51.470;9.894;2022-12-26T12:15:40;0.25;;;0.20;;
25946;SDS011;13745;51.470;9.894;2022-12-26T12:18:37;2.08;;;0.25;;
25946;SDS011;13745;51.470;9.894;2022-12-26T12:21:31;0.60;;;0.30;;
25946;SDS011;13745;51.470;9.894;2022-12-26T12:27:16;0.35;;;0.28;;
25946;SDS011;13745;51.470;9.894;2022-12-26T12:30:13;1.33;;;0.40;;
25946;SDS011;13745;51.470;9.894;2022-12-26T12:33:09;0.63;;;0.30;;
25946;SDS011;13745;51.470;9.894;2022-12-26T12:36:09;2.40;;;0.28;;
25946;SDS011;13745;51.470;9.894;2022-12-26T12:38:59;0.60;;;0.20;;
25946;SDS011;13745;51.470;9.894;2022-12-26T12:42:07;2.53;;;0.28;;
25946;SDS011;13745;51.470;9.894;2022-12-26T12:45:13;0.47;;;0.30;;
25946;SDS011;13745;51.470;9.894;2022-12-26T12:48:11;1.43;;;0.40;;
25946;SDS011;13745;51.470;9.894;2022-12-26T12:51:12;0.80;;;0.40;;
25946;SDS011;13745;51.470;9.894;2022-12-26T12:54:13;2.50;;;0.30;;
25946;SDS011;13745;51.470;9.894;2022-12-26T12:57:11;3.63;;;1.58;;
25946;SDS011;13745;51.470;9.894;2022-12-26T13:00:10;1.08;;;0.40;;
25946;SDS011;13745;51.470;9.894;2022-12-26T13:02:58;2.08;;;0.70;;
25946;SDS011;13745;51.470;9.894;2022-12-26T13:05:51;2.10;;;1.10;;
25946;SDS011;13745;51.470;9.894;2022-12-26T13:08:45;2.28;;;0.80;;
25946;SDS011;13745;51.470;9.894;2022-12-26T13:11:35;0.90;;;0.40;;
25946;SDS011;13745;51.470;9.894;2022-12-26T13:14:23;1.00;;;0.43;;
25946;SDS011;13745;51.470;9.894;2022-12-26T13:17:13;1.73;;;0.70;;
25946;SDS011;13745;51.470;9.894;2022-12-26T13:20:04;1.00;;;0.60;;
25946;SDS011;13745;51.470;9.894;2022-12-26T13:22:58;1.58;;;0.60;;
25946;SDS011;13745;51.470;9.894;2022-12-26T13:26:08;2.22;;;0.55;;
25946;SDS011;13745;51.470;9.894;2022-12-26T13:28:57;2.30;;;0.40;;
25946;SDS011;13745;51.470;9.894;2022-12-26T13:31:46;0.88;;;0.40;;
25946;SDS011;13745;51.470;9.894;2022-12-26T13:34:31;1.52;;;0.50;;
25946;SDS011;13745;51.470;9.894;2022-12-26T13:40:40;1.15;;;0.50;;
25946;SDS011;13745;51.470;9.894;2022-12-26T13:43:32;1.70;;;0.50;;
25946;SDS011;13745;51.470;9.894;2022-12-26T13:46:35;1.70;;;0.60;;
25946;SDS011;13745;51.470;9.894;2022-12-26T13:49:37;2.07;;;0.40;;
25946;SDS011;13745;51.470;9.894;2022-12-26T13:52:31;0.80;;;0.60;;
25946;SDS011;13745;51.470;9.894;2022-12-26T13:58:30;0.80;;;0.50;;
25946;SDS011;13745;51.470;9.894;2022-12-26T14:01:33;1.92;;;0.40;;
25946;SDS011;13745;51.470;9.894;2022-12-26T14:04:36;0.77;;;0.47;;
25946;SDS011;13745;51.470;9.894;2022-12-26T14:07:31;1.90;;;0.55;;
25946;SDS011;13745;51.470;9.894;2022-12-26T14:10:26;2.13;;;1.13;;
25946;SDS011;13745;51.470;9.894;2022-12-26T14:13:34;1.70;;;0.60;;
25946;SDS011;13745;51.470;9.894;2022-12-26T14:16:34;3.53;;;0.60;;
25946;SDS011;13745;51.470;9.894;2022-12-26T14:19:32;2.55;;;0.60;;
25946;SDS011;13745;51.470;9.894;2022-12-26T14:22:28;2.35;;;0.57;;
25946;SDS011;13745;51.470;9.894;2022-12-26T14:25:25;0.82;;;0.50;;
25946;SDS011;13745;51.470;9.894;2022-12-26T14:28:17;0.43;;;0.38;;
25946;SDS011;13745;51.470;9.894;2022-12-26T14:31:12;1.35;;;0.47;;
25946;SDS011;13745;51.470;9.894;2022-12-26T14:34:05;1.10;;;0.47;;
25946;SDS011;13745;51.470;9.894;2022-12-26T14:37:03;0.85;;;0.50;;
25946;SDS011;13745;51.470;9.894;2022-12-26T14:40:03;1.13;;;0.68;;
25946;SDS011;13745;51.470;9.894;2022-12-26T14:43:01;1.50;;;0.70;;
25946;SDS011;13745;51.470;9.894;2022-12-26T14:46:05;2.90;;;1.40;;
25946;SDS011;13745;51.470;9.894;2022-12-26T14:49:20;0.60;;;0.40;;
25946;SDS011;13745;51.470;9.894;2022-12-26T14:58:38;4.35;;;0.68;;
25946;SDS011;13745;51.470;9.894;2022-12-26T15:01:47;2.47;;;0.77;;
25946;SDS011;13745;51.470;9.894;2022-12-26T15:04:57;2.10;;;0.60;;
25946;SDS011;13745;51.470;9.894;2022-12-26T15:08:00;1.60;;;0.65;;
25946;SDS011;13745;51.470;9.894;2022-12-26T15:11:17;2.58;;;0.60;;
25946;SDS011;13745;51.470;9.894;2022-12-26T15:17:39;1.10;;;0.40;;
25946;SDS011;13745;51.470;9.894;2022-12-26T15:24:16;0.75;;;0.52;;
25946;SDS011;13745;51.470;9.894;2022-12-26T15:27:23;0.85;;;0.80;;
25946;SDS011;13745;51.470;9.894;2022-12-26T15:30:31;3.30;;;0.50;;
25946;SDS011;13745;51.470;9.894;2022-12-26T15:33:33;2.33;;;0.77;;
25946;SDS011;13745;51.470;9.894;2022-12-26T15:36:25;2.83;;;0.80;;
25946;SDS011;13745;51.470;9.894;2022-12-26T15:39:20;1.77;;;0.70;;
25946;SDS011;13745;51.470;9.894;2022-12-26T15:42:15;2.07;;;0.83;;
25946;SDS011;13745;51.470;9.894;2022-12-26T15:45:17;1.05;;;0.95;;
25946;SDS011;13745;51.470;9.894;2022-12-26T15:48:10;3.38;;;1.38;;
25946;SDS011;13745;51.470;9.894;2022-12-26T15:51:06;1.38;;;0.90;;
25946;SDS011;13745;51.470;9.894;2022-12-26T15:53:59;2.53;;;1.10;;
25946;SDS011;13745;51.470;9.894;2022-12-26T15:57:01;1.05;;;0.70;;
25946;SDS011;13745;51.470;9.894;2022-12-26T16:00:06;0.55;;;0.55;;
25946;SDS011;13745;51.470;9.894;2022-12-26T16:03:02;1.63;;;0.40;;
25946;SDS011;13745;51.470;9.894;2022-12-26T16:05:59;0.43;;;0.30;;
25946;SDS011;13745;51.470;9.894;2022-12-26T16:11:58;2.63;;;1.65;;
25946;SDS011;13745;51.470;9.894;2022-12-26T16:14:44;3.08;;;0.60;;
25946;SDS011;13745;51.470;9.894;2022-12-26T16:17:29;3.25;;;0.70;;
25946;SDS011;13745;51.470;9.894;2022-12-26T16:20:16;0.90;;;0.63;;
25946;SDS011;13745;51.470;9.894;2022-12-26T16:23:25;2.28;;;0.60;;
25946;SDS011;13745;51.470;9.894;2022-12-26T16:26:16;0.82;;;0.60;;
25946;SDS011;13745;51.470;9.894;2022-12-26T16:29:05;2.75;;;0.85;;
25946;SDS011;13745;51.470;9.894;2022-12-26T16:31:51;1.77;;;0.63;;
25946;SDS011;13745;51.470;9.894;2022-12-26T16:34:36;1.30;;;0.80;;
25946;SDS011;13745;51.470;9.894;2022-12-26T16:37:22;3.55;;;0.80;;
25946;SDS011;13745;51.470;9.894;2022-12-26T16:40:14;2.35;;;1.00;;
25946;SDS011;13745;51.470;9.894;2022-12-26T16:43:20;2.97;;;0.80;;
25946;SDS011;13745;51.470;9.894;2022-12-26T16:46:08;2.08;;;0.90;;
25946;SDS011;13745;51.470;9.894;2022-12-26T16:48:56;1.60;;;0.90;;
25946;SDS011;13745;51.470;9.894;2022-12-26T16:51:43;1.48;;;1.05;;
25946;SDS011;13745;51.470;9.894;2022-12-26T16:54:34;3.58;;;1.00;;
25946;SDS011;13745;51.470;9.894;2022-12-26T16:57:21;6.13;;;1.42;;
25946;SDS011;13745;51.470;9.894;2022-12-26T17:00:13;5.43;;;1.17;;
25946;SDS011;13745;51.470;9.894;2022-12-26T17:03:00;2.28;;;1.30;;
25946;SDS011;13745;51.470;9.894;2022-12-26T17:05:53;3.07;;;0.80;;
25946;SDS011;13745;51.470;9.894;2022-12-26T17:08:40;4.45;;;1.60;;
25946;SDS011;13745;51.470;9.894;2022-12-26T17:11:28;3.20;;;1.75;;
25946;SDS011;13745;51.470;9.894;2022-12-26T17:14:16;7.35;;;3.80;;
25946;SDS011;13745;51.470;9.894;2022-12-26T17:17:07;8.90;;;4.43;;
25946;SDS011;13745;51.470;9.894;2022-12-26T17:23:34;5.75;;;1.98;;
25946;SDS011;13745;51.470;9.894;2022-12-26T17:26:22;5.05;;;2.35;;
25946;SDS011;13745;51.470;9.894;2022-12-26T17:32:31;7.22;;;2.70;;
25946;SDS011;13745;51.470;9.894;2022-12-26T17:35:21;4.93;;;1.55;;
25946;SDS011;13745;51.470;9.894;2022-12-26T17:38:09;3.78;;;1.50;;
25946;SDS011;13745;51.470;9.894;2022-12-26T17:40:59;5.22;;;0.95;;
25946;SDS011;13745;51.470;9.894;2022-12-26T17:43:46;4.40;;;1.00;;
25946;SDS011;13745;51.470;9.894;2022-12-26T17:46:33;2.50;;;0.80;;
25946;SDS011;13745;51.470;9.894;2022-12-26T17:49:19;5.40;;;1.08;;
25946;SDS011;13745;51.470;9.894;2022-12-26T17:52:04;13.00;;;0.98;;
25946;SDS011;13745;51.470;9.894;2022-12-26T17:54:50;2.85;;;0.98;;
25946;SDS011;13745;51.470;9.894;2022-12-26T17:57:36;2.33;;;0.70;;
25946;SDS011;13745;51.470;9.894;2022-12-26T18:00:21;5.05;;;1.20;;
25946;SDS011;13745;51.470;9.894;2022-12-26T18:03:08;2.47;;;0.75;;
25946;SDS011;13745;51.470;9.894;2022-12-26T18:05:55;4.75;;;1.02;;
25946;SDS011;13745;51.470;9.894;2022-12-26T18:08:40;6.18;;;1.05;;